createdAt,value
2023-01-09T00:02:03.091Z,79.32
2023-01-09T00:07:06.071Z,79.53
2023-01-09T00:12:08.977Z,79.91
2023-01-09T00:17:11.897Z,80.26
2023-01-09T00:22:14.885Z,80.45
2023-01-09T00:27:18.140Z,80.62
2023-01-09T00:32:21.252Z,80.75
2023-01-09T00:37:24.480Z,80.83
2023-01-09T00:42:32.042Z,80.90
2023-01-09T00:47:46.795Z,81.00
2023-01-09T00:52:53.560Z,80.63
2023-01-09T00:57:56.763Z,80.71
2023-01-09T01:02:59.923Z,81.08
2023-01-09T01:08:02.981Z,81.08
2023-01-09T01:13:05.981Z,81.19
2023-01-09T01:18:14.036Z,80.92
2023-01-09T01:23:17.462Z,80.39
2023-01-09T01:28:20.446Z,80.47
2023-01-09T01:33:23.357Z,80.42
2023-01-09T01:38:26.345Z,80.25
2023-01-09T01:43:49.770Z,80.54
2023-01-09T01:49:22.573Z,80.65
2023-01-09T01:54:32.312Z,80.84
2023-01-09T01:59:40.294Z,80.98
2023-01-09T02:04:43.267Z,81.05
2023-01-09T02:09:46.439Z,81.11
2023-01-09T02:14:54.129Z,81.01
2023-01-09T02:20:31.936Z,80.86
2023-01-09T02:26:22.149Z,80.95
2023-01-09T02:32:04.028Z,81.00
2023-01-09T02:37:20.712Z,80.99
2023-01-09T02:42:25.593Z,81.05
2023-01-09T02:47:29.425Z,81.26
2023-01-09T02:53:23.954Z,81.00
2023-01-09T02:58:51.247Z,80.88
2023-01-09T03:04:21.053Z,80.87
2023-01-09T03:09:28.340Z,81.00
2023-01-09T03:14:33.886Z,81.03
2023-01-09T03:19:38.011Z,80.92
2023-01-09T03:24:41.099Z,80.61
2023-01-09T03:29:44.081Z,80.23
2023-01-09T03:34:46.988Z,80.27
2023-01-09T03:39:49.895Z,80.57
2023-01-09T03:44:52.992Z,80.73
2023-01-09T03:49:55.928Z,80.72
2023-01-09T03:54:58.829Z,80.88
2023-01-09T04:00:01.791Z,80.85
2023-01-09T04:05:05.302Z,81.05
2023-01-09T04:10:09.581Z,81.33
2023-01-09T04:15:12.552Z,81.22
2023-01-09T04:20:15.785Z,81.24
2023-01-09T04:25:18.701Z,81.18
2023-01-09T04:30:21.931Z,81.35
2023-01-09T04:35:25.117Z,81.34
2023-01-09T04:40:28.133Z,80.93
2023-01-09T04:45:31.327Z,80.35
2023-01-09T04:50:34.235Z,80.71
2023-01-09T04:55:37.199Z,80.78
2023-01-09T05:00:40.214Z,80.69
2023-01-09T05:05:43.125Z,80.75
2023-01-09T05:10:46.032Z,81.00
2023-01-09T05:15:48.945Z,80.76
2023-01-09T05:20:52.031Z,80.64
2023-01-09T05:25:54.949Z,80.85
2023-01-09T05:30:59.222Z,80.67
2023-01-09T05:36:02.144Z,80.61
2023-01-09T05:41:05.237Z,80.80
2023-01-09T05:46:08.242Z,80.84
2023-01-09T05:51:12.457Z,80.51
2023-01-09T05:56:15.588Z,80.38
2023-01-09T06:01:18.555Z,80.26
2023-01-09T06:06:21.515Z,80.53
2023-01-09T06:11:24.445Z,80.81
2023-01-09T06:16:27.566Z,81.14
2023-01-09T06:21:30.504Z,81.27
2023-01-09T06:26:33.595Z,80.87
2023-01-09T06:31:36.571Z,80.63
2023-01-09T06:36:39.558Z,80.65
2023-01-09T06:41:42.564Z,80.89
2023-01-09T06:46:45.503Z,80.83
2023-01-09T06:51:48.419Z,81.35
2023-01-09T06:56:51.354Z,81.85
2023-01-09T07:01:54.305Z,82.01
2023-01-09T07:06:57.305Z,82.11
2023-01-09T07:12:00.260Z,82.26
2023-01-09T07:17:03.806Z,82.49
2023-01-09T07:22:06.770Z,82.61
2023-01-09T07:27:09.710Z,82.49
2023-01-09T07:32:12.703Z,82.53
2023-01-09T07:37:15.646Z,82.78
2023-01-09T07:42:18.803Z,82.58
2023-01-09T07:47:21.835Z,82.24
2023-01-09T07:52:24.854Z,81.91
2023-01-09T07:57:29.921Z,81.97
2023-01-09T08:02:33.934Z,81.69
2023-01-09T08:07:36.866Z,81.60
2023-01-09T08:12:44.378Z,81.59
2023-01-09T08:17:47.593Z,81.73
2023-01-09T08:22:50.753Z,81.59
2023-01-09T08:27:53.780Z,81.86
2023-01-09T08:32:56.967Z,82.08
2023-01-09T08:37:59.918Z,82.19
2023-01-09T08:43:21.290Z,82.35
2023-01-09T08:48:24.441Z,82.39
2023-01-09T08:53:27.463Z,82.41
2023-01-09T08:58:31.291Z,82.44
2023-01-09T09:03:34.171Z,83.08
2023-01-09T09:08:37.109Z,83.19
2023-01-09T09:13:40.052Z,83.26
2023-01-09T09:18:42.975Z,83.22
2023-01-09T09:23:46.096Z,83.05
2023-01-09T09:28:49.017Z,82.81
2023-01-09T09:33:51.967Z,82.52
2023-01-09T09:38:54.884Z,82.59
2023-01-09T09:44:38.118Z,83.00
2023-01-09T09:50:13.573Z,83.12
2023-01-09T09:55:27.494Z,83.59
2023-01-09T10:00:30.912Z,83.67
2023-01-09T10:05:45.622Z,83.80
2023-01-09T10:10:54.197Z,84.20
2023-01-09T10:16:06.153Z,84.44
2023-01-09T10:21:32.761Z,84.49
2023-01-09T10:26:48.406Z,85.00
2023-01-09T10:32:24.803Z,84.73
2023-01-09T10:37:43.572Z,84.78
2023-01-09T10:43:19.345Z,85.28
2023-01-09T10:48:36.590Z,85.67
2023-01-09T10:53:45.104Z,85.73
2023-01-09T10:58:49.005Z,85.66
2023-01-09T11:03:52.506Z,85.74
2023-01-09T11:08:59.262Z,85.58
2023-01-09T11:14:28.520Z,85.48
2023-01-09T11:19:33.676Z,85.06
2023-01-09T11:24:36.656Z,85.09
2023-01-09T11:29:43.551Z,84.83
2023-01-09T11:34:46.829Z,84.73
2023-01-09T11:39:49.781Z,84.61
2023-01-09T11:44:59.200Z,84.76
2023-01-09T11:50:21.591Z,84.75
2023-01-09T11:55:29.363Z,84.35
2023-01-09T12:01:09.574Z,84.42
2023-01-09T12:06:30.892Z,84.30
2023-01-09T12:11:49.220Z,84.38
2023-01-09T12:17:28.244Z,84.08
2023-01-09T12:23:00.195Z,84.08
2023-01-09T12:28:26.094Z,83.80
2023-01-09T12:34:19.165Z,83.69
2023-01-09T12:40:06.763Z,83.47
2023-01-09T12:45:28.559Z,82.97
2023-01-09T12:51:20.114Z,82.87
2023-01-09T12:56:39.146Z,82.65
2023-01-09T13:01:48.790Z,82.32
2023-01-09T13:07:01.071Z,82.22
2023-01-09T13:12:12.760Z,81.91
2023-01-09T13:17:42.620Z,81.68
2023-01-09T13:22:50.339Z,81.37
2023-01-09T13:28:02.569Z,81.38
2023-01-09T13:33:28.454Z,81.33
2023-01-09T13:38:34.131Z,81.16
2023-01-09T13:43:59.930Z,81.10
2023-01-09T13:49:03.765Z,81.05
2023-01-09T13:54:10.147Z,80.75
2023-01-09T13:59:29.031Z,80.67
2023-01-09T14:04:43.880Z,80.49
2023-01-09T14:09:54.571Z,80.65
2023-01-09T14:15:04.309Z,80.82
2023-01-09T14:20:28.140Z,80.96
2023-01-09T14:25:32.559Z,80.44
2023-01-09T14:30:38.370Z,80.29
2023-01-09T14:35:51.253Z,80.20
2023-01-09T14:41:17.011Z,79.89
2023-01-09T14:46:22.512Z,79.94
2023-01-09T14:51:28.240Z,79.73
2023-01-09T14:56:31.729Z,79.48
2023-01-09T15:01:35.965Z,79.40
2023-01-09T15:06:43.541Z,79.43
2023-01-09T15:11:46.909Z,79.35
2023-01-09T15:16:49.913Z,79.31
2023-01-09T15:22:05.474Z,78.86
2023-01-09T15:27:15.428Z,78.84
2023-01-09T15:32:24.882Z,78.79
2023-01-09T15:37:38.663Z,78.83
2023-01-09T15:42:58.173Z,78.63
2023-01-09T15:48:19.719Z,78.89
2023-01-09T15:53:27.004Z,78.54
2023-01-09T15:58:37.647Z,78.53
2023-01-09T16:03:40.672Z,78.25
2023-01-09T16:08:52.437Z,78.42
2023-01-09T16:13:58.607Z,78.07
2023-01-09T16:19:01.668Z,78.19
2023-01-09T16:24:16.734Z,78.10
2023-01-09T16:29:40.455Z,77.87
2023-01-09T16:34:44.305Z,77.86
2023-01-09T16:40:18.749Z,77.92
2023-01-09T16:45:21.788Z,77.73
2023-01-09T16:50:25.705Z,77.60
2023-01-09T16:55:28.750Z,77.76
2023-01-09T17:00:32.170Z,77.65
2023-01-09T17:05:35.128Z,77.74
2023-01-09T17:10:38.084Z,77.50
2023-01-09T17:15:41.177Z,77.70
2023-01-09T17:20:48.185Z,77.44
2023-01-09T17:26:14.404Z,77.27
2023-01-09T17:31:19.138Z,77.06
2023-01-09T17:36:34.641Z,77.25
2023-01-09T17:41:37.699Z,77.29
2023-01-09T17:46:43.844Z,77.27
2023-01-09T17:51:46.850Z,76.88
2023-01-09T17:56:51.207Z,76.60
2023-01-09T18:01:54.207Z,77.18
2023-01-09T18:06:57.213Z,77.04
2023-01-09T18:12:00.167Z,76.95
2023-01-09T18:17:03.353Z,77.34
2023-01-09T18:22:06.299Z,77.18
2023-01-09T18:27:09.234Z,77.02
2023-01-09T18:32:12.201Z,77.06
2023-01-09T18:37:15.305Z,77.15
2023-01-09T18:42:18.636Z,77.34
2023-01-09T18:47:21.580Z,77.26
2023-01-09T18:52:24.807Z,76.98
2023-01-09T18:57:27.765Z,76.81
2023-01-09T19:02:30.777Z,76.94
2023-01-09T19:07:33.721Z,76.92
2023-01-09T19:12:36.627Z,76.60
2023-01-09T19:17:39.768Z,76.62
2023-01-09T19:22:42.725Z,76.84
2023-01-09T19:27:45.725Z,77.11
2023-01-09T19:32:48.724Z,77.02
2023-01-09T19:37:51.640Z,76.85
2023-01-09T19:42:56.627Z,76.63
2023-01-09T19:48:00.162Z,76.67
2023-01-09T19:53:03.109Z,77.03
2023-01-09T19:58:06.113Z,77.17
2023-01-09T20:03:09.445Z,76.97
2023-01-09T20:08:12.373Z,77.02
2023-01-09T20:13:15.321Z,76.81
2023-01-09T20:18:18.233Z,76.95
2023-01-09T20:23:22.325Z,77.02
2023-01-09T20:28:25.452Z,77.06
2023-01-09T20:33:28.421Z,76.76
2023-01-09T20:38:32.722Z,76.92
2023-01-09T20:43:36.438Z,76.75
2023-01-09T20:48:39.379Z,77.11
2023-01-09T20:53:58.719Z,77.22
2023-01-09T20:59:01.847Z,76.99
2023-01-09T21:04:04.987Z,76.92
2023-01-09T21:09:08.032Z,76.86
2023-01-09T21:14:11.277Z,76.95
2023-01-09T21:19:14.230Z,77.33
2023-01-09T21:24:17.471Z,77.32
2023-01-09T21:29:20.559Z,76.99
2023-01-09T21:34:23.551Z,76.75
2023-01-09T21:39:27.073Z,76.53
2023-01-09T21:44:48.673Z,76.81
2023-01-09T21:49:51.665Z,76.96
2023-01-09T21:54:54.694Z,76.96
2023-01-09T21:59:57.617Z,77.09
2023-01-09T22:05:01.206Z,77.07
2023-01-09T22:10:04.909Z,77.27
2023-01-09T22:15:07.874Z,77.24
2023-01-09T22:20:11.741Z,77.03
2023-01-09T22:25:15.212Z,77.35
2023-01-09T22:30:18.445Z,76.80
2023-01-09T22:35:21.453Z,76.44
2023-01-09T22:40:24.639Z,76.53
2023-01-09T22:45:27.627Z,76.41
2023-01-09T22:50:30.573Z,76.50
2023-01-09T22:55:33.621Z,76.23
2023-01-09T23:00:36.574Z,76.09
2023-01-09T23:05:42.702Z,76.24
2023-01-09T23:10:45.722Z,76.08
2023-01-09T23:15:48.804Z,75.96
2023-01-09T23:20:52.399Z,75.81
2023-01-09T23:25:59.033Z,75.69
2023-01-09T23:31:01.969Z,75.92
2023-01-09T23:36:05.444Z,75.80
2023-01-09T23:41:08.644Z,75.71
2023-01-09T23:46:14.952Z,75.68
2023-01-09T23:51:17.918Z,75.47
2023-01-09T23:56:20.847Z,75.72
